sensor_id;sensor_type;location;lat;lon;timestamp;temperature;humidity
70166;SHT30;57541;47.408;18.822;2022-12-28T00:00:30;-1.67;95.51
70166;SHT30;57541;47.408;18.822;2022-12-28T00:01:38;-1.62;95.15
70166;SHT30;57541;47.408;18.822;2022-12-28T00:02:09;-1.63;94.96
70166;SHT30;57541;47.408;18.822;2022-12-28T00:02:41;-1.64;94.93
70166;SHT30;57541;47.408;18.822;2022-12-28T00:03:13;-1.73;95.00
70166;SHT30;57541;47.408;18.822;2022-12-28T00:03:45;-1.78;95.10
70166;SHT30;57541;47.408;18.822;2022-12-28T00:04:17;-1.70;95.08
70166;SHT30;57541;47.408;18.822;2022-12-28T00:04:48;-1.68;94.92
70166;SHT30;57541;47.408;18.822;2022-12-28T00:05:20;-1.70;94.83
70166;SHT30;57541;47.408;18.822;2022-12-28T00:05:52;-1.67;94.60
70166;SHT30;57541;47.408;18.822;2022-12-28T00:06:24;-1.64;94.64
70166;SHT30;57541;47.408;18.822;2022-12-28T00:06:56;-1.67;94.27
70166;SHT30;57541;47.408;18.822;2022-12-28T00:07:28;-1.71;94.35
70166;SHT30;57541;47.408;18.822;2022-12-28T00:07:59;-1.73;94.73
70166;SHT30;57541;47.408;18.822;2022-12-28T00:08:31;-1.66;95.09
70166;SHT30;57541;47.408;18.822;2022-12-28T00:09:03;-1.63;95.03
70166;SHT30;57541;47.408;18.822;2022-12-28T00:09:34;-1.66;94.94
70166;SHT30;57541;47.408;18.822;2022-12-28T00:10:06;-1.63;95.07
70166;SHT30;57541;47.408;18.822;2022-12-28T00:10:38;-1.63;95.19
70166;SHT30;57541;47.408;18.822;2022-12-28T00:11:29;-1.57;95.07
70166;SHT30;57541;47.408;18.822;2022-12-28T00:12:01;-1.54;94.86
70166;SHT30;57541;47.408;18.822;2022-12-28T00:12:33;-1.54;94.81
70166;SHT30;57541;47.408;18.822;2022-12-28T00:13:04;-1.50;94.92
70166;SHT30;57541;47.408;18.822;2022-12-28T00:13:37;-1.57;95.10
70166;SHT30;57541;47.408;18.822;2022-12-28T00:14:08;-1.62;95.27
70166;SHT30;57541;47.408;18.822;2022-12-28T00:14:40;-1.66;95.48
70166;SHT30;57541;47.408;18.822;2022-12-28T00:15:12;-1.64;95.49
70166;SHT30;57541;47.408;18.822;2022-12-28T00:15:43;-1.60;95.72
70166;SHT30;57541;47.408;18.822;2022-12-28T00:16:35;-1.68;95.51
70166;SHT30;57541;47.408;18.822;2022-12-28T00:17:07;-1.68;95.56
70166;SHT30;57541;47.408;18.822;2022-12-28T00:17:39;-1.66;95.74
70166;SHT30;57541;47.408;18.822;2022-12-28T00:18:10;-1.67;95.83
70166;SHT30;57541;47.408;18.822;2022-12-28T00:18:42;-1.68;95.83
70166;SHT30;57541;47.408;18.822;2022-12-28T00:19:15;-1.67;95.52
70166;SHT30;57541;47.408;18.822;2022-12-28T00:19:47;-1.63;95.44
70166;SHT30;57541;47.408;18.822;2022-12-28T00:20:18;-1.60;95.42
70166;SHT30;57541;47.408;18.822;2022-12-28T00:20:57;-1.59;95.50
70166;SHT30;57541;47.408;18.822;2022-12-28T00:21:29;-1.63;95.60
70166;SHT30;57541;47.408;18.822;2022-12-28T00:22:01;-1.59;95.31
70166;SHT30;57541;47.408;18.822;2022-12-28T00:22:33;-1.57;95.09
70166;SHT30;57541;47.408;18.822;2022-12-28T00:23:05;-1.60;94.95
70166;SHT30;57541;47.408;18.822;2022-12-28T00:23:37;-1.64;95.02
70166;SHT30;57541;47.408;18.822;2022-12-28T00:24:17;-1.64;94.94
70166;SHT30;57541;47.408;18.822;2022-12-28T00:24:50;-1.75;95.26
70166;SHT30;57541;47.408;18.822;2022-12-28T00:25:21;-1.84;95.42
70166;SHT30;57541;47.408;18.822;2022-12-28T00:25:53;-1.90;95.62
70166;SHT30;57541;47.408;18.822;2022-12-28T00:26:29;-1.95;95.54
70166;SHT30;57541;47.408;18.822;2022-12-28T00:27:01;-1.91;95.62
70166;SHT30;57541;47.408;18.822;2022-12-28T00:27:32;-1.98;95.61
70166;SHT30;57541;47.408;18.822;2022-12-28T00:28:04;-1.98;95.27
70166;SHT30;57541;47.408;18.822;2022-12-28T00:28:36;-1.97;95.07
70166;SHT30;57541;47.408;18.822;2022-12-28T00:29:08;-2.01;95.10
70166;SHT30;57541;47.408;18.822;2022-12-28T00:29:39;-2.05;95.34
70166;SHT30;57541;47.408;18.822;2022-12-28T00:30:11;-2.06;95.03
70166;SHT30;57541;47.408;18.822;2022-12-28T00:30:43;-2.06;95.03
70166;SHT30;57541;47.408;18.822;2022-12-28T00:31:15;-2.06;95.21
70166;SHT30;57541;47.408;18.822;2022-12-28T00:31:47;-2.01;95.14
70166;SHT30;57541;47.408;18.822;2022-12-28T00:32:18;-2.05;94.92
70166;SHT30;57541;47.408;18.822;2022-12-28T00:32:50;-1.98;95.18
70166;SHT30;57541;47.408;18.822;2022-12-28T00:33:22;-1.95;95.26
70166;SHT30;57541;47.408;18.822;2022-12-28T00:33:53;-1.85;95.14
70166;SHT30;57541;47.408;18.822;2022-12-28T00:34:25;-1.81;94.82
70166;SHT30;57541;47.408;18.822;2022-12-28T00:34:56;-1.80;94.53
70166;SHT30;57541;47.408;18.822;2022-12-28T00:35:28;-1.80;94.56
70166;SHT30;57541;47.408;18.822;2022-12-28T00:36:00;-1.77;94.58
70166;SHT30;57541;47.408;18.822;2022-12-28T00:36:32;-1.81;94.96
70166;SHT30;57541;47.408;18.822;2022-12-28T00:37:24;-1.75;94.98
70166;SHT30;57541;47.408;18.822;2022-12-28T00:37:56;-1.75;94.69
70166;SHT30;57541;47.408;18.822;2022-12-28T00:38:28;-1.78;94.62
70166;SHT30;57541;47.408;18.822;2022-12-28T00:39:03;-1.71;94.64
70166;SHT30;57541;47.408;18.822;2022-12-28T00:39:35;-1.71;94.57
70166;SHT30;57541;47.408;18.822;2022-12-28T00:40:08;-1.67;94.43
70166;SHT30;57541;47.408;18.822;2022-12-28T00:40:39;-1.67;94.19
70166;SHT30;57541;47.408;18.822;2022-12-28T00:41:11;-1.70;94.10
70166;SHT30;57541;47.408;18.822;2022-12-28T00:41:43;-1.71;94.35
70166;SHT30;57541;47.408;18.822;2022-12-28T00:42:14;-1.74;94.31
70166;SHT30;57541;47.408;18.822;2022-12-28T00:42:46;-1.75;94.44
70166;SHT30;57541;47.408;18.822;2022-12-28T00:43:18;-1.75;94.75
70166;SHT30;57541;47.408;18.822;2022-12-28T00:43:49;-1.77;95.00
70166;SHT30;57541;47.408;18.822;2022-12-28T00:44:21;-1.77;95.35
70166;SHT30;57541;47.408;18.822;2022-12-28T00:44:53;-1.75;95.59
70166;SHT30;57541;47.408;18.822;2022-12-28T00:45:24;-1.78;95.59
70166;SHT30;57541;47.408;18.822;2022-12-28T00:45:56;-1.74;95.57
70166;SHT30;57541;47.408;18.822;2022-12-28T00:46:27;-1.77;95.59
70166;SHT30;57541;47.408;18.822;2022-12-28T00:46:59;-1.71;95.63
70166;SHT30;57541;47.408;18.822;2022-12-28T00:47:31;-1.66;95.56
70166;SHT30;57541;47.408;18.822;2022-12-28T00:48:03;-1.67;95.45
70166;SHT30;57541;47.408;18.822;2022-12-28T00:48:34;-1.68;95.51
70166;SHT30;57541;47.408;18.822;2022-12-28T00:49:06;-1.64;95.46
70166;SHT30;57541;47.408;18.822;2022-12-28T00:49:38;-1.70;94.72
70166;SHT30;57541;47.408;18.822;2022-12-28T00:50:09;-1.77;94.94
70166;SHT30;57541;47.408;18.822;2022-12-28T00:50:42;-1.81;95.37
70166;SHT30;57541;47.408;18.822;2022-12-28T00:51:17;-1.74;95.62
70166;SHT30;57541;47.408;18.822;2022-12-28T00:51:49;-1.73;95.62
70166;SHT30;57541;47.408;18.822;2022-12-28T00:52:21;-1.74;95.40
70166;SHT30;57541;47.408;18.822;2022-12-28T00:52:52;-1.64;95.35
70166;SHT30;57541;47.408;18.822;2022-12-28T00:53:24;-1.64;95.32
70166;SHT30;57541;47.408;18.822;2022-12-28T00:53:56;-1.71;95.14
70166;SHT30;57541;47.408;18.822;2022-12-28T00:54:27;-1.75;95.39
70166;SHT30;57541;47.408;18.822;2022-12-28T00:54:59;-1.74;95.14
70166;SHT30;57541;47.408;18.822;2022-12-28T00:55:34;-1.77;95.07
70166;SHT30;57541;47.408;18.822;2022-12-28T00:56:10;-1.78;95.21
70166;SHT30;57541;47.408;18.822;2022-12-28T00:56:42;-1.74;95.53
70166;SHT30;57541;47.408;18.822;2022-12-28T00:57:14;-1.74;95.61
70166;SHT30;57541;47.408;18.822;2022-12-28T00:57:45;-1.80;95.41
70166;SHT30;57541;47.408;18.822;2022-12-28T00:58:17;-1.78;95.47
70166;SHT30;57541;47.408;18.822;2022-12-28T00:58:49;-1.78;95.67
70166;SHT30;57541;47.408;18.822;2022-12-28T00:59:21;-1.84;95.46
70166;SHT30;57541;47.408;18.822;2022-12-28T00:59:52;-1.85;95.52
70166;SHT30;57541;47.408;18.822;2022-12-28T01:00:24;-1.85;95.33
70166;SHT30;57541;47.408;18.822;2022-12-28T01:00:56;-1.99;95.38
70166;SHT30;57541;47.408;18.822;2022-12-28T01:01:28;-2.02;95.60
70166;SHT30;57541;47.408;18.822;2022-12-28T01:02:00;-2.02;95.78
70166;SHT30;57541;47.408;18.822;2022-12-28T01:02:32;-1.97;95.68
70166;SHT30;57541;47.408;18.822;2022-12-28T01:03:04;-2.04;95.55
70166;SHT30;57541;47.408;18.822;2022-12-28T01:03:35;-2.04;95.34
70166;SHT30;57541;47.408;18.822;2022-12-28T01:04:07;-2.02;95.43
70166;SHT30;57541;47.408;18.822;2022-12-28T01:04:38;-2.04;95.62
70166;SHT30;57541;47.408;18.822;2022-12-28T01:05:10;-2.04;95.67
70166;SHT30;57541;47.408;18.822;2022-12-28T01:05:42;-1.94;95.72
70166;SHT30;57541;47.408;18.822;2022-12-28T01:06:16;-1.90;95.60
70166;SHT30;57541;47.408;18.822;2022-12-28T01:06:48;-1.94;95.60
70166;SHT30;57541;47.408;18.822;2022-12-28T01:07:20;-1.93;95.62
70166;SHT30;57541;47.408;18.822;2022-12-28T01:07:52;-1.88;95.83
70166;SHT30;57541;47.408;18.822;2022-12-28T01:08:23;-1.90;95.39
70166;SHT30;57541;47.408;18.822;2022-12-28T01:08:55;-1.93;95.41
70166;SHT30;57541;47.408;18.822;2022-12-28T01:09:27;-1.99;95.48
70166;SHT30;57541;47.408;18.822;2022-12-28T01:09:58;-1.94;95.66
70166;SHT30;57541;47.408;18.822;2022-12-28T01:10:30;-1.87;95.59
70166;SHT30;57541;47.408;18.822;2022-12-28T01:11:11;-1.88;95.37
70166;SHT30;57541;47.408;18.822;2022-12-28T01:11:45;-1.85;95.43
70166;SHT30;57541;47.408;18.822;2022-12-28T01:12:16;-1.81;95.38
70166;SHT30;57541;47.408;18.822;2022-12-28T01:12:48;-1.88;95.59
70166;SHT30;57541;47.408;18.822;2022-12-28T01:13:19;-1.90;95.30
70166;SHT30;57541;47.408;18.822;2022-12-28T01:13:52;-1.90;95.29
70166;SHT30;57541;47.408;18.822;2022-12-28T01:14:24;-1.91;95.53
70166;SHT30;57541;47.408;18.822;2022-12-28T01:14:56;-1.91;95.54
70166;SHT30;57541;47.408;18.822;2022-12-28T01:15:28;-1.99;95.55
70166;SHT30;57541;47.408;18.822;2022-12-28T01:15:59;-1.94;95.76
70166;SHT30;57541;47.408;18.822;2022-12-28T01:16:33;-2.04;95.63
70166;SHT30;57541;47.408;18.822;2022-12-28T01:17:06;-2.06;96.05
70166;SHT30;57541;47.408;18.822;2022-12-28T01:17:38;-1.98;96.28
70166;SHT30;57541;47.408;18.822;2022-12-28T01:18:09;-1.97;96.19
70166;SHT30;57541;47.408;18.822;2022-12-28T01:18:44;-2.12;96.26
70166;SHT30;57541;47.408;18.822;2022-12-28T01:19:19;-2.12;96.55
70166;SHT30;57541;47.408;18.822;2022-12-28T01:19:51;-2.08;96.47
70166;SHT30;57541;47.408;18.822;2022-12-28T01:20:24;-2.15;96.61
70166;SHT30;57541;47.408;18.822;2022-12-28T01:20:56;-2.05;96.59
70166;SHT30;57541;47.408;18.822;2022-12-28T01:21:30;-2.04;96.31
70166;SHT30;57541;47.408;18.822;2022-12-28T01:22:02;-2.06;96.11
70166;SHT30;57541;47.408;18.822;2022-12-28T01:22:34;-2.05;96.19
70166;SHT30;57541;47.408;18.822;2022-12-28T01:23:06;-2.09;96.18
70166;SHT30;57541;47.408;18.822;2022-12-28T01:23:38;-2.01;96.49
70166;SHT30;57541;47.408;18.822;2022-12-28T01:24:09;-1.97;96.45
70166;SHT30;57541;47.408;18.822;2022-12-28T01:24:41;-1.99;96.09
70166;SHT30;57541;47.408;18.822;2022-12-28T01:25:12;-2.02;96.13
70166;SHT30;57541;47.408;18.822;2022-12-28T01:25:44;-1.93;96.22
70166;SHT30;57541;47.408;18.822;2022-12-28T01:26:16;-1.94;95.83
70166;SHT30;57541;47.408;18.822;2022-12-28T01:26:47;-1.98;95.88
70166;SHT30;57541;47.408;18.822;2022-12-28T01:27:19;-1.99;96.19
70166;SHT30;57541;47.408;18.822;2022-12-28T01:27:51;-1.93;96.38
70166;SHT30;57541;47.408;18.822;2022-12-28T01:28:22;-1.91;96.40
70166;SHT30;57541;47.408;18.822;2022-12-28T01:28:54;-1.87;96.22
70166;SHT30;57541;47.408;18.822;2022-12-28T01:29:26;-1.90;96.42
70166;SHT30;57541;47.408;18.822;2022-12-28T01:29:58;-1.84;96.47
70166;SHT30;57541;47.408;18.822;2022-12-28T01:30:29;-1.84;96.13
70166;SHT30;57541;47.408;18.822;2022-12-28T01:31:10;-1.91;96.24
70166;SHT30;57541;47.408;18.822;2022-12-28T01:31:41;-1.87;96.33
70166;SHT30;57541;47.408;18.822;2022-12-28T01:32:13;-1.90;96.32
70166;SHT30;57541;47.408;18.822;2022-12-28T01:32:45;-1.87;96.24
70166;SHT30;57541;47.408;18.822;2022-12-28T01:33:16;-1.91;96.45
70166;SHT30;57541;47.408;18.822;2022-12-28T01:33:48;-1.87;96.56
70166;SHT30;57541;47.408;18.822;2022-12-28T01:34:20;-1.84;96.56
70166;SHT30;57541;47.408;18.822;2022-12-28T01:34:51;-1.85;96.51
70166;SHT30;57541;47.408;18.822;2022-12-28T01:35:23;-1.85;96.45
70166;SHT30;57541;47.408;18.822;2022-12-28T01:35:54;-1.85;96.45
70166;SHT30;57541;47.408;18.822;2022-12-28T01:36:29;-1.90;96.44
70166;SHT30;57541;47.408;18.822;2022-12-28T01:37:05;-1.90;96.35
70166;SHT30;57541;47.408;18.822;2022-12-28T01:37:37;-1.91;96.25
70166;SHT30;57541;47.408;18.822;2022-12-28T01:38:08;-1.87;96.45
70166;SHT30;57541;47.408;18.822;2022-12-28T01:38:40;-1.90;96.31
70166;SHT30;57541;47.408;18.822;2022-12-28T01:39:12;-1.90;96.42
70166;SHT30;57541;47.408;18.822;2022-12-28T01:39:43;-1.93;96.24
70166;SHT30;57541;47.408;18.822;2022-12-28T01:40:15;-1.90;96.22
70166;SHT30;57541;47.408;18.822;2022-12-28T01:40:47;-1.83;96.32
70166;SHT30;57541;47.408;18.822;2022-12-28T01:41:21;-1.83;96.39
70166;SHT30;57541;47.408;18.822;2022-12-28T01:41:53;-1.83;96.28
70166;SHT30;57541;47.408;18.822;2022-12-28T01:42:24;-1.85;96.24
70166;SHT30;57541;47.408;18.822;2022-12-28T01:42:56;-1.87;96.17
70166;SHT30;57541;47.408;18.822;2022-12-28T01:43:45;-1.84;96.44
70166;SHT30;57541;47.408;18.822;2022-12-28T01:44:54;-1.97;96.64
70166;SHT30;57541;47.408;18.822;2022-12-28T01:45:25;-1.90;96.71
70166;SHT30;57541;47.408;18.822;2022-12-28T01:45:57;-1.84;96.60
70166;SHT30;57541;47.408;18.822;2022-12-28T01:47:00;-1.91;96.32
70166;SHT30;57541;47.408;18.822;2022-12-28T01:47:33;-1.97;96.70
70166;SHT30;57541;47.408;18.822;2022-12-28T01:48:16;-1.98;96.73
70166;SHT30;57541;47.408;18.822;2022-12-28T01:49:11;-1.95;96.87
70166;SHT30;57541;47.408;18.822;2022-12-28T01:49:52;-1.93;96.89
70166;SHT30;57541;47.408;18.822;2022-12-28T01:50:26;-1.88;97.07
70166;SHT30;57541;47.408;18.822;2022-12-28T01:50:59;-1.90;96.97
70166;SHT30;57541;47.408;18.822;2022-12-28T01:53:00;-1.84;96.87
70166;SHT30;57541;47.408;18.822;2022-12-28T01:53:33;-1.80;96.95
70166;SHT30;57541;47.408;18.822;2022-12-28T01:54:04;-1.83;96.64
70166;SHT30;57541;47.408;18.822;2022-12-28T01:54:40;-1.84;96.57
70166;SHT30;57541;47.408;18.822;2022-12-28T01:55:21;-1.78;96.57
70166;SHT30;57541;47.408;18.822;2022-12-28T01:55:53;-1.83;96.51
70166;SHT30;57541;47.408;18.822;2022-12-28T01:56:26;-1.80;96.58
70166;SHT30;57541;47.408;18.822;2022-12-28T01:56:58;-1.81;96.74
70166;SHT30;57541;47.408;18.822;2022-12-28T01:57:31;-1.85;96.98
70166;SHT30;57541;47.408;18.822;2022-12-28T01:58:18;-1.74;97.00
70166;SHT30;57541;47.408;18.822;2022-12-28T01:58:52;-1.85;96.77
70166;SHT30;57541;47.408;18.822;2022-12-28T01:59:27;-1.80;96.84
70166;SHT30;57541;47.408;18.822;2022-12-28T02:00:19;-1.83;96.60
70166;SHT30;57541;47.408;18.822;2022-12-28T02:01:33;-1.93;96.29
70166;SHT30;57541;47.408;18.822;2022-12-28T02:02:05;-1.91;96.48
70166;SHT30;57541;47.408;18.822;2022-12-28T02:02:38;-1.93;96.69
70166;SHT30;57541;47.408;18.822;2022-12-28T02:03:15;-1.93;96.70
70166;SHT30;57541;47.408;18.822;2022-12-28T02:03:48;-1.90;96.70
70166;SHT30;57541;47.408;18.822;2022-12-28T02:04:20;-1.94;96.67
70166;SHT30;57541;47.408;18.822;2022-12-28T02:04:52;-1.94;96.75
70166;SHT30;57541;47.408;18.822;2022-12-28T02:05:28;-1.93;96.89
70166;SHT30;57541;47.408;18.822;2022-12-28T02:06:04;-1.90;96.79
70166;SHT30;57541;47.408;18.822;2022-12-28T02:06:37;-1.93;96.70
70166;SHT30;57541;47.408;18.822;2022-12-28T02:07:08;-1.95;96.68
70166;SHT30;57541;47.408;18.822;2022-12-28T02:07:51;-1.95;96.51
70166;SHT30;57541;47.408;18.822;2022-12-28T02:09:38;-1.98;96.13
70166;SHT30;57541;47.408;18.822;2022-12-28T02:10:10;-2.02;96.19
70166;SHT30;57541;47.408;18.822;2022-12-28T02:11:02;-2.05;95.84
70166;SHT30;57541;47.408;18.822;2022-12-28T02:11:34;-2.08;95.82
70166;SHT30;57541;47.408;18.822;2022-12-28T02:12:09;-2.05;95.81
70166;SHT30;57541;47.408;18.822;2022-12-28T02:12:41;-2.09;95.88
70166;SHT30;57541;47.408;18.822;2022-12-28T02:13:15;-2.21;95.76
70166;SHT30;57541;47.408;18.822;2022-12-28T02:13:49;-2.21;95.88
70166;SHT30;57541;47.408;18.822;2022-12-28T02:14:21;-2.23;96.20
70166;SHT30;57541;47.408;18.822;2022-12-28T02:14:53;-2.29;96.29
70166;SHT30;57541;47.408;18.822;2022-12-28T02:15:25;-2.29;96.38
70166;SHT30;57541;47.408;18.822;2022-12-28T02:15:56;-2.26;96.73
70166;SHT30;57541;47.408;18.822;2022-12-28T02:16:28;-2.26;96.71
70166;SHT30;57541;47.408;18.822;2022-12-28T02:17:00;-2.22;96.77
70166;SHT30;57541;47.408;18.822;2022-12-28T02:17:32;-2.18;96.78
70166;SHT30;57541;47.408;18.822;2022-12-28T02:18:04;-2.21;96.33
70166;SHT30;57541;47.408;18.822;2022-12-28T02:18:37;-2.19;96.33
70166;SHT30;57541;47.408;18.822;2022-12-28T02:19:12;-2.19;96.82
70166;SHT30;57541;47.408;18.822;2022-12-28T02:19:47;-2.16;96.91
70166;SHT30;57541;47.408;18.822;2022-12-28T02:20:19;-2.14;96.90
70166;SHT30;57541;47.408;18.822;2022-12-28T02:23:22;-1.99;97.31
70166;SHT30;57541;47.408;18.822;2022-12-28T02:24:21;-2.01;97.29
70166;SHT30;57541;47.408;18.822;2022-12-28T02:26:34;-1.97;97.10
70166;SHT30;57541;47.408;18.822;2022-12-28T02:28:18;-1.98;96.94
70166;SHT30;57541;47.408;18.822;2022-12-28T02:30:01;-1.88;96.91
70166;SHT30;57541;47.408;18.822;2022-12-28T02:30:39;-1.84;96.94
70166;SHT30;57541;47.408;18.822;2022-12-28T02:31:42;-1.84;96.63
70166;SHT30;57541;47.408;18.822;2022-12-28T02:32:32;-1.84;96.35
70166;SHT30;57541;47.408;18.822;2022-12-28T02:33:06;-1.81;96.07
70166;SHT30;57541;47.408;18.822;2022-12-28T02:33:48;-1.80;95.75
70166;SHT30;57541;47.408;18.822;2022-12-28T02:34:26;-1.85;95.58
70166;SHT30;57541;47.408;18.822;2022-12-28T02:36:11;-2.12;95.81
70166;SHT30;57541;47.408;18.822;2022-12-28T02:36:54;-2.12;95.88
70166;SHT30;57541;47.408;18.822;2022-12-28T02:37:39;-2.08;96.18
70166;SHT30;57541;47.408;18.822;2022-12-28T02:38:21;-2.06;96.36
70166;SHT30;57541;47.408;18.822;2022-12-28T02:39:08;-1.98;96.46
70166;SHT30;57541;47.408;18.822;2022-12-28T02:39:49;-1.91;96.47
70166;SHT30;57541;47.408;18.822;2022-12-28T02:40:34;-1.94;96.17
70166;SHT30;57541;47.408;18.822;2022-12-28T02:41:11;-1.88;96.20
70166;SHT30;57541;47.408;18.822;2022-12-28T02:41:44;-1.84;96.11
70166;SHT30;57541;47.408;18.822;2022-12-28T02:42:18;-1.80;95.90
70166;SHT30;57541;47.408;18.822;2022-12-28T02:42:53;-1.81;95.75
70166;SHT30;57541;47.408;18.822;2022-12-28T02:43:25;-1.83;95.70
70166;SHT30;57541;47.408;18.822;2022-12-28T02:43:57;-1.81;95.69
70166;SHT30;57541;47.408;18.822;2022-12-28T02:44:29;-1.83;95.76
70166;SHT30;57541;47.408;18.822;2022-12-28T02:45:46;-1.97;96.49
70166;SHT30;57541;47.408;18.822;2022-12-28T02:46:37;-2.02;96.46
70166;SHT30;57541;47.408;18.822;2022-12-28T02:47:27;-2.01;96.75
70166;SHT30;57541;47.408;18.822;2022-12-28T02:48:18;-2.02;96.78
70166;SHT30;57541;47.408;18.822;2022-12-28T02:49:22;-2.04;96.62
70166;SHT30;57541;47.408;18.822;2022-12-28T02:50:14;-2.02;96.58
70166;SHT30;57541;47.408;18.822;2022-12-28T02:50:57;-1.99;96.63
70166;SHT30;57541;47.408;18.822;2022-12-28T02:53:08;-1.95;96.79
70166;SHT30;57541;47.408;18.822;2022-12-28T02:56:09;-2.06;96.56
70166;SHT30;57541;47.408;18.822;2022-12-28T02:56:53;-2.12;96.67
70166;SHT30;57541;47.408;18.822;2022-12-28T02:59:08;-2.21;96.53
70166;SHT30;57541;47.408;18.822;2022-12-28T02:59:57;-2.26;96.47
70166;SHT30;57541;47.408;18.822;2022-12-28T03:03:57;-2.23;96.66
70166;SHT30;57541;47.408;18.822;2022-12-28T03:05:55;-2.28;96.84
70166;SHT30;57541;47.408;18.822;2022-12-28T03:07:02;-2.19;97.07
70166;SHT30;57541;47.408;18.822;2022-12-28T03:08:00;-2.09;96.84
70166;SHT30;57541;47.408;18.822;2022-12-28T03:09:12;-2.08;96.52
70166;SHT30;57541;47.408;18.822;2022-12-28T03:10:13;-2.09;96.64
70166;SHT30;57541;47.408;18.822;2022-12-28T03:10:54;-2.14;96.74
70166;SHT30;57541;47.408;18.822;2022-12-28T03:11:39;-2.12;97.01
70166;SHT30;57541;47.408;18.822;2022-12-28T03:12:27;-2.21;96.94
70166;SHT30;57541;47.408;18.822;2022-12-28T03:13:04;-2.22;96.84
70166;SHT30;57541;47.408;18.822;2022-12-28T03:14:00;-2.25;96.56
70166;SHT30;57541;47.408;18.822;2022-12-28T03:14:40;-2.25;97.09
70166;SHT30;57541;47.408;18.822;2022-12-28T03:15:18;-2.22;97.31
70166;SHT30;57541;47.408;18.822;2022-12-28T03:16:05;-2.21;96.90
70166;SHT30;57541;47.408;18.822;2022-12-28T03:16:40;-2.21;96.83
70166;SHT30;57541;47.408;18.822;2022-12-28T03:17:33;-2.23;97.09
70166;SHT30;57541;47.408;18.822;2022-12-28T03:18:27;-2.21;97.00
70166;SHT30;57541;47.408;18.822;2022-12-28T03:19:19;-2.31;96.43
70166;SHT30;57541;47.408;18.822;2022-12-28T03:20:20;-2.36;96.21
70166;SHT30;57541;47.408;18.822;2022-12-28T03:21:13;-2.43;95.46
70166;SHT30;57541;47.408;18.822;2022-12-28T03:22:04;-2.52;95.13
70166;SHT30;57541;47.408;18.822;2022-12-28T03:22:56;-2.56;95.84
70166;SHT30;57541;47.408;18.822;2022-12-28T03:23:48;-2.60;96.11
70166;SHT30;57541;47.408;18.822;2022-12-28T03:24:42;-2.59;96.29
70166;SHT30;57541;47.408;18.822;2022-12-28T03:25:37;-2.57;96.09
70166;SHT30;57541;47.408;18.822;2022-12-28T03:26:32;-2.74;96.25
70166;SHT30;57541;47.408;18.822;2022-12-28T03:27:23;-2.80;96.21
70166;SHT30;57541;47.408;18.822;2022-12-28T03:28:18;-2.87;96.77
70166;SHT30;57541;47.408;18.822;2022-12-28T03:29:12;-2.85;97.08
70166;SHT30;57541;47.408;18.822;2022-12-28T03:30:12;-2.76;97.30
70166;SHT30;57541;47.408;18.822;2022-12-28T03:31:09;-2.66;97.61
70166;SHT30;57541;47.408;18.822;2022-12-28T03:31:42;-2.57;97.59
70166;SHT30;57541;47.408;18.822;2022-12-28T03:32:14;-2.67;97.59
70166;SHT30;57541;47.408;18.822;2022-12-28T03:32:47;-2.90;97.65
70166;SHT30;57541;47.408;18.822;2022-12-28T03:33:18;-2.76;97.94
70166;SHT30;57541;47.408;18.822;2022-12-28T03:33:52;-2.69;97.59
70166;SHT30;57541;47.408;18.822;2022-12-28T03:34:37;-2.72;97.21
70166;SHT30;57541;47.408;18.822;2022-12-28T03:35:08;-2.74;97.28
70166;SHT30;57541;47.408;18.822;2022-12-28T03:36:02;-2.67;97.36
70166;SHT30;57541;47.408;18.822;2022-12-28T03:37:21;-2.62;97.18
70166;SHT30;57541;47.408;18.822;2022-12-28T03:38:05;-2.60;97.11
70166;SHT30;57541;47.408;18.822;2022-12-28T03:39:44;-2.50;97.30
70166;SHT30;57541;47.408;18.822;2022-12-28T03:40:26;-2.45;97.08
70166;SHT30;57541;47.408;18.822;2022-12-28T03:41:05;-2.45;96.91
70166;SHT30;57541;47.408;18.822;2022-12-28T03:41:56;-2.35;96.78
70166;SHT30;57541;47.408;18.822;2022-12-28T03:42:49;-2.31;96.40
70166;SHT30;57541;47.408;18.822;2022-12-28T03:43:52;-2.25;96.00
70166;SHT30;57541;47.408;18.822;2022-12-28T03:44:27;-2.23;95.81
70166;SHT30;57541;47.408;18.822;2022-12-28T03:47:09;-2.22;95.78
70166;SHT30;57541;47.408;18.822;2022-12-28T03:47:42;-2.29;96.10
70166;SHT30;57541;47.408;18.822;2022-12-28T03:48:16;-2.32;96.59
70166;SHT30;57541;47.408;18.822;2022-12-28T03:48:48;-2.28;96.74
70166;SHT30;57541;47.408;18.822;2022-12-28T03:49:22;-2.23;96.79
70166;SHT30;57541;47.408;18.822;2022-12-28T03:49:54;-2.28;96.60
70166;SHT30;57541;47.408;18.822;2022-12-28T03:50:26;-2.32;96.77
70166;SHT30;57541;47.408;18.822;2022-12-28T03:50:59;-2.28;97.00
70166;SHT30;57541;47.408;18.822;2022-12-28T03:51:31;-2.31;97.32
70166;SHT30;57541;47.408;18.822;2022-12-28T03:52:05;-2.29;97.45
70166;SHT30;57541;47.408;18.822;2022-12-28T03:52:37;-2.32;97.61
70166;SHT30;57541;47.408;18.822;2022-12-28T03:53:09;-2.31;97.76
70166;SHT30;57541;47.408;18.822;2022-12-28T03:53:43;-2.25;97.83
70166;SHT30;57541;47.408;18.822;2022-12-28T03:54:16;-2.25;97.54
70166;SHT30;57541;47.408;18.822;2022-12-28T03:54:48;-2.26;97.47
70166;SHT30;57541;47.408;18.822;2022-12-28T03:55:19;-2.16;97.47
70166;SHT30;57541;47.408;18.822;2022-12-28T03:55:51;-2.16;97.16
70166;SHT30;57541;47.408;18.822;2022-12-28T03:56:26;-2.21;97.06
70166;SHT30;57541;47.408;18.822;2022-12-28T03:56:58;-2.28;96.91
70166;SHT30;57541;47.408;18.822;2022-12-28T03:57:29;-2.23;96.85
70166;SHT30;57541;47.408;18.822;2022-12-28T03:58:01;-2.25;96.78
70166;SHT30;57541;47.408;18.822;2022-12-28T03:58:32;-2.28;96.82
70166;SHT30;57541;47.408;18.822;2022-12-28T03:59:04;-2.33;96.97
70166;SHT30;57541;47.408;18.822;2022-12-28T03:59:36;-2.33;97.29
70166;SHT30;57541;47.408;18.822;2022-12-28T04:00:08;-2.45;97.07
70166;SHT30;57541;47.408;18.822;2022-12-28T04:00:41;-2.49;96.64
70166;SHT30;57541;47.408;18.822;2022-12-28T04:01:13;-2.52;96.38
70166;SHT30;57541;47.408;18.822;2022-12-28T04:01:44;-2.45;96.60
70166;SHT30;57541;47.408;18.822;2022-12-28T04:02:16;-2.49;96.64
70166;SHT30;57541;47.408;18.822;2022-12-28T04:02:49;-2.46;96.74
70166;SHT30;57541;47.408;18.822;2022-12-28T04:03:21;-2.46;96.63
70166;SHT30;57541;47.408;18.822;2022-12-28T04:03:53;-2.35;96.59
70166;SHT30;57541;47.408;18.822;2022-12-28T04:04:24;-2.36;96.13
70166;SHT30;57541;47.408;18.822;2022-12-28T04:04:56;-2.38;95.53
70166;SHT30;57541;47.408;18.822;2022-12-28T04:05:27;-2.36;95.63
70166;SHT30;57541;47.408;18.822;2022-12-28T04:05:59;-2.32;95.85
70166;SHT30;57541;47.408;18.822;2022-12-28T04:06:31;-2.36;96.17
70166;SHT30;57541;47.408;18.822;2022-12-28T04:07:03;-2.33;96.23
70166;SHT30;57541;47.408;18.822;2022-12-28T04:07:34;-2.39;96.07
70166;SHT30;57541;47.408;18.822;2022-12-28T04:08:06;-2.42;96.11
70166;SHT30;57541;47.408;18.822;2022-12-28T04:08:38;-2.46;95.81
70166;SHT30;57541;47.408;18.822;2022-12-28T04:09:09;-2.56;95.74
70166;SHT30;57541;47.408;18.822;2022-12-28T04:09:41;-2.50;95.90